sensor_id;sensor_type;location;lat;lon;timestamp;P1;durP1;ratioP1;P2;durP2;ratioP2
30147;SDS011;16960;49.404;8.248;2022-08-25T00:01:45;5.70;;;3.53;;
30147;SDS011;16960;49.404;8.248;2022-08-25T00:04:15;3.27;;;3.07;;
30147;SDS011;16960;49.404;8.248;2022-08-25T00:06:43;4.23;;;3.60;;
30147;SDS011;16960;49.404;8.248;2022-08-25T00:09:12;4.30;;;3.80;;
30147;SDS011;16960;49.404;8.248;2022-08-25T00:11:40;5.53;;;3.20;;
30147;SDS011;16960;49.404;8.248;2022-08-25T00:14:09;3.63;;;3.10;;
30147;SDS011;16960;49.404;8.248;2022-08-25T00:16:38;5.40;;;3.33;;
30147;SDS011;16960;49.404;8.248;2022-08-25T00:19:07;3.60;;;3.30;;
30147;SDS011;16960;49.404;8.248;2022-08-25T00:21:36;4.83;;;3.47;;
30147;SDS011;16960;49.404;8.248;2022-08-25T00:24:04;3.73;;;3.43;;
30147;SDS011;16960;49.404;8.248;2022-08-25T00:26:33;6.93;;;3.50;;
30147;SDS011;16960;49.404;8.248;2022-08-25T00:29:00;5.27;;;3.77;;
30147;SDS011;16960;49.404;8.248;2022-08-25T00:31:27;3.80;;;3.50;;
30147;SDS011;16960;49.404;8.248;2022-08-25T00:33:54;4.73;;;3.10;;
30147;SDS011;16960;49.404;8.248;2022-08-25T00:36:22;5.87;;;3.50;;
30147;SDS011;16960;49.404;8.248;2022-08-25T00:38:50;3.80;;;3.40;;
30147;SDS011;16960;49.404;8.248;2022-08-25T00:41:19;4.50;;;3.70;;
30147;SDS011;16960;49.404;8.248;2022-08-25T00:43:50;6.07;;;3.93;;
30147;SDS011;16960;49.404;8.248;2022-08-25T00:46:19;5.03;;;3.80;;
30147;SDS011;16960;49.404;8.248;2022-08-25T00:48:48;4.33;;;3.30;;
30147;SDS011;16960;49.404;8.248;2022-08-25T00:51:20;3.83;;;3.07;;
30147;SDS011;16960;49.404;8.248;2022-08-25T00:53:52;3.57;;;3.10;;
30147;SDS011;16960;49.404;8.248;2022-08-25T00:56:20;3.27;;;3.07;;
30147;SDS011;16960;49.404;8.248;2022-08-25T00:58:48;4.27;;;3.87;;
30147;SDS011;16960;49.404;8.248;2022-08-25T01:01:15;4.33;;;3.77;;
30147;SDS011;16960;49.404;8.248;2022-08-25T01:03:43;3.97;;;3.37;;
30147;SDS011;16960;49.404;8.248;2022-08-25T01:06:10;4.03;;;3.40;;
30147;SDS011;16960;49.404;8.248;2022-08-25T01:08:38;3.60;;;3.30;;
30147;SDS011;16960;49.404;8.248;2022-08-25T01:11:05;3.23;;;2.90;;
30147;SDS011;16960;49.404;8.248;2022-08-25T01:13:35;4.10;;;3.70;;
30147;SDS011;16960;49.404;8.248;2022-08-25T01:16:05;4.70;;;4.10;;
30147;SDS011;16960;49.404;8.248;2022-08-25T01:21:23;6.83;;;4.03;;
30147;SDS011;16960;49.404;8.248;2022-08-25T01:23:52;3.40;;;3.10;;
30147;SDS011;16960;49.404;8.248;2022-08-25T01:26:23;3.80;;;3.50;;
30147;SDS011;16960;49.404;8.248;2022-08-25T01:28:52;5.50;;;3.70;;
30147;SDS011;16960;49.404;8.248;2022-08-25T01:31:37;3.70;;;3.40;;
30147;SDS011;16960;49.404;8.248;2022-08-25T01:34:09;4.30;;;3.90;;
30147;SDS011;16960;49.404;8.248;2022-08-25T01:36:38;7.70;;;4.30;;
30147;SDS011;16960;49.404;8.248;2022-08-25T01:39:07;5.13;;;3.00;;
30147;SDS011;16960;49.404;8.248;2022-08-25T01:41:38;5.53;;;3.50;;
30147;SDS011;16960;49.404;8.248;2022-08-25T01:44:14;6.60;;;3.97;;
30147;SDS011;16960;49.404;8.248;2022-08-25T01:46:42;9.87;;;4.20;;
30147;SDS011;16960;49.404;8.248;2022-08-25T01:49:09;4.10;;;3.70;;
30147;SDS011;16960;49.404;8.248;2022-08-25T01:51:39;5.30;;;4.10;;
30147;SDS011;16960;49.404;8.248;2022-08-25T01:54:09;4.10;;;3.70;;
30147;SDS011;16960;49.404;8.248;2022-08-25T01:56:36;4.90;;;4.40;;
30147;SDS011;16960;49.404;8.248;2022-08-25T01:59:03;3.63;;;3.33;;
30147;SDS011;16960;49.404;8.248;2022-08-25T02:01:30;4.73;;;3.53;;
30147;SDS011;16960;49.404;8.248;2022-08-25T02:03:57;3.30;;;3.00;;
30147;SDS011;16960;49.404;8.248;2022-08-25T02:06:25;4.13;;;3.43;;
30147;SDS011;16960;49.404;8.248;2022-08-25T02:08:55;4.10;;;3.80;;
30147;SDS011;16960;49.404;8.248;2022-08-25T02:11:25;3.50;;;3.20;;
30147;SDS011;16960;49.404;8.248;2022-08-25T02:13:52;7.07;;;4.10;;
30147;SDS011;16960;49.404;8.248;2022-08-25T02:16:20;5.17;;;3.93;;
30147;SDS011;16960;49.404;8.248;2022-08-25T02:18:50;5.67;;;4.07;;
30147;SDS011;16960;49.404;8.248;2022-08-25T02:21:17;5.17;;;3.43;;
30147;SDS011;16960;49.404;8.248;2022-08-25T02:23:44;5.40;;;4.27;;
30147;SDS011;16960;49.404;8.248;2022-08-25T02:26:13;10.13;;;4.80;;
30147;SDS011;16960;49.404;8.248;2022-08-25T02:28:43;7.03;;;4.17;;
30147;SDS011;16960;49.404;8.248;2022-08-25T02:31:10;4.87;;;3.97;;
30147;SDS011;16960;49.404;8.248;2022-08-25T02:33:37;4.67;;;3.77;;
30147;SDS011;16960;49.404;8.248;2022-08-25T02:36:04;6.23;;;4.23;;
30147;SDS011;16960;49.404;8.248;2022-08-25T02:38:33;4.10;;;3.30;;
30147;SDS011;16960;49.404;8.248;2022-08-25T02:41:00;4.57;;;4.10;;
30147;SDS011;16960;49.404;8.248;2022-08-25T02:43:37;5.23;;;4.00;;
30147;SDS011;16960;49.404;8.248;2022-08-25T02:46:04;5.73;;;4.00;;
30147;SDS011;16960;49.404;8.248;2022-08-25T02:48:31;6.17;;;3.70;;
30147;SDS011;16960;49.404;8.248;2022-08-25T02:50:58;3.87;;;3.47;;
30147;SDS011;16960;49.404;8.248;2022-08-25T02:53:27;5.00;;;3.63;;
30147;SDS011;16960;49.404;8.248;2022-08-25T02:55:55;5.30;;;3.20;;
30147;SDS011;16960;49.404;8.248;2022-08-25T02:58:22;4.03;;;3.63;;
30147;SDS011;16960;49.404;8.248;2022-08-25T03:00:51;5.07;;;3.57;;
30147;SDS011;16960;49.404;8.248;2022-08-25T03:03:19;6.33;;;3.67;;
30147;SDS011;16960;49.404;8.248;2022-08-25T03:05:46;7.13;;;4.00;;
30147;SDS011;16960;49.404;8.248;2022-08-25T03:08:14;5.30;;;4.50;;
30147;SDS011;16960;49.404;8.248;2022-08-25T03:10:41;4.27;;;3.87;;
30147;SDS011;16960;49.404;8.248;2022-08-25T03:13:08;4.20;;;3.87;;
30147;SDS011;16960;49.404;8.248;2022-08-25T03:15:35;5.83;;;4.17;;
30147;SDS011;16960;49.404;8.248;2022-08-25T03:18:04;4.67;;;4.10;;
30147;SDS011;16960;49.404;8.248;2022-08-25T03:20:31;4.13;;;3.73;;
30147;SDS011;16960;49.404;8.248;2022-08-25T03:22:59;4.47;;;4.07;;
30147;SDS011;16960;49.404;8.248;2022-08-25T03:25:27;4.17;;;3.60;;
30147;SDS011;16960;49.404;8.248;2022-08-25T03:28:12;3.93;;;3.60;;
30147;SDS011;16960;49.404;8.248;2022-08-25T03:30:39;3.93;;;3.53;;
30147;SDS011;16960;49.404;8.248;2022-08-25T03:33:08;4.93;;;3.60;;
30147;SDS011;16960;49.404;8.248;2022-08-25T03:35:35;6.80;;;4.67;;
30147;SDS011;16960;49.404;8.248;2022-08-25T03:38:03;6.70;;;3.50;;
30147;SDS011;16960;49.404;8.248;2022-08-25T03:40:30;3.60;;;3.30;;
30147;SDS011;16960;49.404;8.248;2022-08-25T03:42:57;7.33;;;4.20;;
30147;SDS011;16960;49.404;8.248;2022-08-25T03:45:25;4.20;;;3.80;;
30147;SDS011;16960;49.404;8.248;2022-08-25T03:47:52;3.70;;;3.40;;
30147;SDS011;16960;49.404;8.248;2022-08-25T03:50:21;4.40;;;3.73;;
30147;SDS011;16960;49.404;8.248;2022-08-25T03:52:51;6.93;;;3.60;;
30147;SDS011;16960;49.404;8.248;2022-08-25T03:55:21;4.00;;;3.40;;
30147;SDS011;16960;49.404;8.248;2022-08-25T03:57:49;5.20;;;4.00;;
30147;SDS011;16960;49.404;8.248;2022-08-25T04:00:16;4.70;;;3.77;;
30147;SDS011;16960;49.404;8.248;2022-08-25T04:02:44;4.13;;;3.80;;
30147;SDS011;16960;49.404;8.248;2022-08-25T04:05:11;4.90;;;4.40;;
30147;SDS011;16960;49.404;8.248;2022-08-25T04:07:40;6.10;;;4.50;;
30147;SDS011;16960;49.404;8.248;2022-08-25T04:10:07;4.50;;;4.00;;
30147;SDS011;16960;49.404;8.248;2022-08-25T04:12:36;6.57;;;3.93;;
30147;SDS011;16960;49.404;8.248;2022-08-25T04:15:04;4.20;;;3.80;;
30147;SDS011;16960;49.404;8.248;2022-08-25T04:17:32;4.60;;;4.20;;
30147;SDS011;16960;49.404;8.248;2022-08-25T04:20:00;9.80;;;4.30;;
30147;SDS011;16960;49.404;8.248;2022-08-25T04:22:27;5.00;;;3.97;;
30147;SDS011;16960;49.404;8.248;2022-08-25T04:24:56;4.13;;;3.80;;
30147;SDS011;16960;49.404;8.248;2022-08-25T04:27:23;4.03;;;3.63;;
30147;SDS011;16960;49.404;8.248;2022-08-25T04:29:50;4.53;;;4.13;;
30147;SDS011;16960;49.404;8.248;2022-08-25T04:32:17;4.30;;;3.73;;
30147;SDS011;16960;49.404;8.248;2022-08-25T04:34:44;4.53;;;4.13;;
30147;SDS011;16960;49.404;8.248;2022-08-25T04:37:13;4.80;;;4.40;;
30147;SDS011;16960;49.404;8.248;2022-08-25T04:39:40;5.70;;;3.90;;
30147;SDS011;16960;49.404;8.248;2022-08-25T04:42:08;4.53;;;4.13;;
30147;SDS011;16960;49.404;8.248;2022-08-25T04:44:35;4.87;;;4.00;;
30147;SDS011;16960;49.404;8.248;2022-08-25T04:47:02;4.77;;;4.27;;
30147;SDS011;16960;49.404;8.248;2022-08-25T04:49:30;4.50;;;4.10;;
30147;SDS011;16960;49.404;8.248;2022-08-25T04:51:57;5.07;;;4.00;;
30147;SDS011;16960;49.404;8.248;2022-08-25T04:54:24;4.63;;;4.23;;
30147;SDS011;16960;49.404;8.248;2022-08-25T04:56:52;5.13;;;3.93;;
30147;SDS011;16960;49.404;8.248;2022-08-25T04:59:20;4.93;;;4.40;;
30147;SDS011;16960;49.404;8.248;2022-08-25T05:01:47;5.00;;;4.50;;
30147;SDS011;16960;49.404;8.248;2022-08-25T05:04:15;5.13;;;3.93;;
30147;SDS011;16960;49.404;8.248;2022-08-25T05:06:42;5.83;;;3.93;;
30147;SDS011;16960;49.404;8.248;2022-08-25T05:09:09;5.00;;;4.60;;
30147;SDS011;16960;49.404;8.248;2022-08-25T05:11:36;4.33;;;3.90;;
30147;SDS011;16960;49.404;8.248;2022-08-25T05:14:03;4.67;;;4.27;;
30147;SDS011;16960;49.404;8.248;2022-08-25T05:16:37;4.53;;;4.13;;
30147;SDS011;16960;49.404;8.248;2022-08-25T05:19:04;6.27;;;4.30;;
30147;SDS011;16960;49.404;8.248;2022-08-25T05:21:31;5.10;;;4.60;;
30147;SDS011;16960;49.404;8.248;2022-08-25T05:23:59;4.10;;;3.80;;
30147;SDS011;16960;49.404;8.248;2022-08-25T05:26:27;5.43;;;4.10;;
30147;SDS011;16960;49.404;8.248;2022-08-25T05:28:56;4.93;;;4.53;;
30147;SDS011;16960;49.404;8.248;2022-08-25T05:31:24;4.33;;;3.77;;
30147;SDS011;16960;49.404;8.248;2022-08-25T05:33:53;4.47;;;4.07;;
30147;SDS011;16960;49.404;8.248;2022-08-25T05:36:21;5.20;;;4.70;;
30147;SDS011;16960;49.404;8.248;2022-08-25T05:38:49;5.47;;;3.63;;
30147;SDS011;16960;49.404;8.248;2022-08-25T05:41:17;4.80;;;4.40;;
30147;SDS011;16960;49.404;8.248;2022-08-25T05:43:46;4.70;;;4.30;;
30147;SDS011;16960;49.404;8.248;2022-08-25T05:46:15;4.33;;;4.00;;
30147;SDS011;16960;49.404;8.248;2022-08-25T05:48:43;6.03;;;4.77;;
30147;SDS011;16960;49.404;8.248;2022-08-25T05:51:12;5.97;;;4.63;;
30147;SDS011;16960;49.404;8.248;2022-08-25T05:53:41;4.90;;;4.50;;
30147;SDS011;16960;49.404;8.248;2022-08-25T05:56:09;4.87;;;4.47;;
30147;SDS011;16960;49.404;8.248;2022-08-25T05:58:38;6.00;;;4.50;;
30147;SDS011;16960;49.404;8.248;2022-08-25T06:01:05;5.17;;;4.70;;
30147;SDS011;16960;49.404;8.248;2022-08-25T06:03:50;11.60;;;5.30;;
30147;SDS011;16960;49.404;8.248;2022-08-25T06:06:20;5.40;;;4.90;;
30147;SDS011;16960;49.404;8.248;2022-08-25T06:08:48;5.83;;;3.97;;
30147;SDS011;16960;49.404;8.248;2022-08-25T06:11:15;7.33;;;5.00;;
30147;SDS011;16960;49.404;8.248;2022-08-25T06:13:43;7.50;;;5.03;;
30147;SDS011;16960;49.404;8.248;2022-08-25T06:16:10;4.63;;;4.23;;
30147;SDS011;16960;49.404;8.248;2022-08-25T06:18:37;4.90;;;4.50;;
30147;SDS011;16960;49.404;8.248;2022-08-25T06:21:08;5.80;;;4.50;;
30147;SDS011;16960;49.404;8.248;2022-08-25T06:23:38;5.60;;;4.90;;
30147;SDS011;16960;49.404;8.248;2022-08-25T06:26:06;4.87;;;4.47;;
30147;SDS011;16960;49.404;8.248;2022-08-25T06:28:36;7.93;;;4.00;;
30147;SDS011;16960;49.404;8.248;2022-08-25T06:31:02;5.60;;;5.00;;
30147;SDS011;16960;49.404;8.248;2022-08-25T06:33:30;6.90;;;4.87;;
30147;SDS011;16960;49.404;8.248;2022-08-25T06:35:57;5.27;;;4.77;;
30147;SDS011;16960;49.404;8.248;2022-08-25T06:38:24;5.40;;;4.77;;
30147;SDS011;16960;49.404;8.248;2022-08-25T06:40:52;7.07;;;4.83;;
30147;SDS011;16960;49.404;8.248;2022-08-25T06:43:19;7.30;;;5.10;;
30147;SDS011;16960;49.404;8.248;2022-08-25T06:45:47;5.87;;;4.63;;
30147;SDS011;16960;49.404;8.248;2022-08-25T06:48:14;7.63;;;4.80;;
30147;SDS011;16960;49.404;8.248;2022-08-25T06:50:41;5.17;;;4.23;;
30147;SDS011;16960;49.404;8.248;2022-08-25T06:53:09;6.37;;;5.77;;
30147;SDS011;16960;49.404;8.248;2022-08-25T06:55:36;6.17;;;5.57;;
30147;SDS011;16960;49.404;8.248;2022-08-25T06:58:05;5.83;;;5.23;;
30147;SDS011;16960;49.404;8.248;2022-08-25T07:00:34;8.50;;;5.33;;
30147;SDS011;16960;49.404;8.248;2022-08-25T07:03:01;5.60;;;4.70;;
30147;SDS011;16960;49.404;8.248;2022-08-25T07:05:29;5.93;;;5.43;;
30147;SDS011;16960;49.404;8.248;2022-08-25T07:07:56;6.30;;;5.63;;
30147;SDS011;16960;49.404;8.248;2022-08-25T07:10:23;7.37;;;5.97;;
30147;SDS011;16960;49.404;8.248;2022-08-25T07:12:50;6.53;;;5.77;;
30147;SDS011;16960;49.404;8.248;2022-08-25T07:15:19;6.07;;;5.23;;
30147;SDS011;16960;49.404;8.248;2022-08-25T07:17:46;6.00;;;5.20;;
30147;SDS011;16960;49.404;8.248;2022-08-25T07:20:13;5.90;;;5.30;;
30147;SDS011;16960;49.404;8.248;2022-08-25T07:22:40;7.80;;;5.37;;
30147;SDS011;16960;49.404;8.248;2022-08-25T07:25:08;9.73;;;6.23;;
30147;SDS011;16960;49.404;8.248;2022-08-25T07:27:36;7.90;;;5.67;;
30147;SDS011;16960;49.404;8.248;2022-08-25T07:30:05;8.03;;;6.03;;
30147;SDS011;16960;49.404;8.248;2022-08-25T07:32:34;7.60;;;5.80;;
30147;SDS011;16960;49.404;8.248;2022-08-25T07:35:01;12.60;;;5.83;;
30147;SDS011;16960;49.404;8.248;2022-08-25T07:37:41;8.53;;;6.00;;
30147;SDS011;16960;49.404;8.248;2022-08-25T07:40:10;6.90;;;5.63;;
30147;SDS011;16960;49.404;8.248;2022-08-25T07:42:39;8.80;;;5.53;;
30147;SDS011;16960;49.404;8.248;2022-08-25T07:45:07;8.43;;;5.97;;
30147;SDS011;16960;49.404;8.248;2022-08-25T07:47:37;9.53;;;6.33;;
30147;SDS011;16960;49.404;8.248;2022-08-25T07:50:05;7.60;;;5.90;;
30147;SDS011;16960;49.404;8.248;2022-08-25T07:52:34;13.63;;;6.73;;
30147;SDS011;16960;49.404;8.248;2022-08-25T07:55:01;9.93;;;5.67;;
30147;SDS011;16960;49.404;8.248;2022-08-25T07:57:29;6.30;;;5.67;;
30147;SDS011;16960;49.404;8.248;2022-08-25T07:59:56;6.93;;;5.63;;
30147;SDS011;16960;49.404;8.248;2022-08-25T08:02:24;6.30;;;5.10;;
30147;SDS011;16960;49.404;8.248;2022-08-25T08:04:52;5.23;;;4.83;;
30147;SDS011;16960;49.404;8.248;2022-08-25T08:07:21;6.03;;;5.23;;
30147;SDS011;16960;49.404;8.248;2022-08-25T08:09:50;5.63;;;4.90;;
30147;SDS011;16960;49.404;8.248;2022-08-25T08:12:18;9.37;;;5.60;;
30147;SDS011;16960;49.404;8.248;2022-08-25T08:14:45;10.37;;;5.60;;
30147;SDS011;16960;49.404;8.248;2022-08-25T08:17:12;5.50;;;5.00;;
30147;SDS011;16960;49.404;8.248;2022-08-25T08:19:40;7.23;;;4.73;;
30147;SDS011;16960;49.404;8.248;2022-08-25T08:22:08;6.37;;;5.40;;
30147;SDS011;16960;49.404;8.248;2022-08-25T08:24:38;9.00;;;5.57;;
30147;SDS011;16960;49.404;8.248;2022-08-25T08:27:06;7.30;;;5.40;;
30147;SDS011;16960;49.404;8.248;2022-08-25T08:29:33;5.60;;;4.97;;
30147;SDS011;16960;49.404;8.248;2022-08-25T08:32:01;5.20;;;4.50;;
30147;SDS011;16960;49.404;8.248;2022-08-25T08:34:29;5.20;;;4.50;;
30147;SDS011;16960;49.404;8.248;2022-08-25T08:36:57;5.30;;;4.73;;
30147;SDS011;16960;49.404;8.248;2022-08-25T08:39:26;5.97;;;5.37;;
30147;SDS011;16960;49.404;8.248;2022-08-25T08:41:59;5.30;;;4.80;;
30147;SDS011;16960;49.404;8.248;2022-08-25T08:47:56;5.40;;;4.80;;
30147;SDS011;16960;49.404;8.248;2022-08-25T08:50:47;5.20;;;4.70;;
30147;SDS011;16960;49.404;8.248;2022-08-25T08:53:22;5.27;;;4.77;;
30147;SDS011;16960;49.404;8.248;2022-08-25T08:55:58;5.40;;;4.90;;
30147;SDS011;16960;49.404;8.248;2022-08-25T08:58:39;4.77;;;4.33;;
30147;SDS011;16960;49.404;8.248;2022-08-25T09:01:09;5.20;;;4.50;;
30147;SDS011;16960;49.404;8.248;2022-08-25T09:03:42;4.70;;;4.30;;
30147;SDS011;16960;49.404;8.248;2022-08-25T09:06:13;5.23;;;4.50;;
30147;SDS011;16960;49.404;8.248;2022-08-25T09:08:45;5.13;;;4.73;;
30147;SDS011;16960;49.404;8.248;2022-08-25T09:11:17;4.80;;;4.40;;
30147;SDS011;16960;49.404;8.248;2022-08-25T09:14:04;4.67;;;4.27;;
30147;SDS011;16960;49.404;8.248;2022-08-25T09:16:43;5.00;;;4.53;;
30147;SDS011;16960;49.404;8.248;2022-08-25T09:22:15;5.60;;;4.70;;
30147;SDS011;16960;49.404;8.248;2022-08-25T09:24:52;5.33;;;4.60;;
30147;SDS011;16960;49.404;8.248;2022-08-25T09:27:25;4.47;;;4.07;;
30147;SDS011;16960;49.404;8.248;2022-08-25T09:30:03;5.10;;;4.60;;
30147;SDS011;16960;49.404;8.248;2022-08-25T09:32:34;4.93;;;4.53;;
30147;SDS011;16960;49.404;8.248;2022-08-25T09:35:04;5.63;;;5.07;;
30147;SDS011;16960;49.404;8.248;2022-08-25T09:37:33;4.57;;;4.17;;
30147;SDS011;16960;49.404;8.248;2022-08-25T09:40:00;5.03;;;4.53;;
30147;SDS011;16960;49.404;8.248;2022-08-25T09:45:15;6.60;;;4.53;;
30147;SDS011;16960;49.404;8.248;2022-08-25T09:47:55;5.80;;;4.53;;
30147;SDS011;16960;49.404;8.248;2022-08-25T09:50:22;5.83;;;4.80;;
30147;SDS011;16960;49.404;8.248;2022-08-25T09:52:49;4.40;;;4.00;;
30147;SDS011;16960;49.404;8.248;2022-08-25T09:55:22;5.83;;;4.33;;
30147;SDS011;16960;49.404;8.248;2022-08-25T09:57:57;6.63;;;4.07;;
30147;SDS011;16960;49.404;8.248;2022-08-25T10:00:26;6.30;;;4.60;;
30147;SDS011;16960;49.404;8.248;2022-08-25T10:03:05;4.10;;;3.70;;
30147;SDS011;16960;49.404;8.248;2022-08-25T10:05:37;5.40;;;4.40;;
30147;SDS011;16960;49.404;8.248;2022-08-25T10:08:13;5.10;;;4.53;;
30147;SDS011;16960;49.404;8.248;2022-08-25T10:10:52;5.23;;;3.93;;
30147;SDS011;16960;49.404;8.248;2022-08-25T10:13:34;4.27;;;3.87;;
30147;SDS011;16960;49.404;8.248;2022-08-25T10:16:05;6.00;;;4.53;;
30147;SDS011;16960;49.404;8.248;2022-08-25T10:18:34;4.43;;;4.03;;
30147;SDS011;16960;49.404;8.248;2022-08-25T10:21:03;5.40;;;3.50;;
30147;SDS011;16960;49.404;8.248;2022-08-25T10:23:36;3.83;;;3.20;;
30147;SDS011;16960;49.404;8.248;2022-08-25T10:26:09;3.97;;;3.67;;
30147;SDS011;16960;49.404;8.248;2022-08-25T10:28:45;4.40;;;4.00;;
30147;SDS011;16960;49.404;8.248;2022-08-25T10:31:24;4.40;;;4.10;;
30147;SDS011;16960;49.404;8.248;2022-08-25T10:33:59;4.50;;;4.10;;
30147;SDS011;16960;49.404;8.248;2022-08-25T10:36:36;4.40;;;4.00;;
30147;SDS011;16960;49.404;8.248;2022-08-25T10:39:16;3.83;;;3.53;;
30147;SDS011;16960;49.404;8.248;2022-08-25T10:41:53;4.03;;;3.63;;
30147;SDS011;16960;49.404;8.248;2022-08-25T10:44:31;4.20;;;3.90;;
30147;SDS011;16960;49.404;8.248;2022-08-25T10:47:33;4.20;;;3.83;;
30147;SDS011;16960;49.404;8.248;2022-08-25T10:50:20;4.40;;;3.90;;
30147;SDS011;16960;49.404;8.248;2022-08-25T10:53:00;5.20;;;4.30;;
30147;SDS011;16960;49.404;8.248;2022-08-25T10:55:42;3.67;;;3.37;;
30147;SDS011;16960;49.404;8.248;2022-08-25T10:58:15;4.40;;;4.00;;
30147;SDS011;16960;49.404;8.248;2022-08-25T11:00:53;3.37;;;3.07;;
30147;SDS011;16960;49.404;8.248;2022-08-25T11:03:29;3.97;;;3.60;;
30147;SDS011;16960;49.404;8.248;2022-08-25T11:06:11;3.70;;;3.40;;
30147;SDS011;16960;49.404;8.248;2022-08-25T11:08:44;4.07;;;3.77;;
30147;SDS011;16960;49.404;8.248;2022-08-25T11:11:17;4.00;;;3.67;;
30147;SDS011;16960;49.404;8.248;2022-08-25T11:13:50;3.60;;;3.30;;
30147;SDS011;16960;49.404;8.248;2022-08-25T11:16:24;5.50;;;3.90;;
30147;SDS011;16960;49.404;8.248;2022-08-25T11:19:01;3.50;;;3.20;;
30147;SDS011;16960;49.404;8.248;2022-08-25T11:21:34;3.63;;;3.30;;
30147;SDS011;16960;49.404;8.248;2022-08-25T11:24:10;3.90;;;3.60;;
30147;SDS011;16960;49.404;8.248;2022-08-25T11:26:48;3.87;;;3.37;;
30147;SDS011;16960;49.404;8.248;2022-08-25T11:29:20;4.30;;;3.90;;
30147;SDS011;16960;49.404;8.248;2022-08-25T11:31:53;3.10;;;2.90;;
30147;SDS011;16960;49.404;8.248;2022-08-25T11:34:20;2.90;;;2.67;;
30147;SDS011;16960;49.404;8.248;2022-08-25T11:36:49;3.53;;;3.20;;
30147;SDS011;16960;49.404;8.248;2022-08-25T11:39:21;4.07;;;3.70;;
30147;SDS011;16960;49.404;8.248;2022-08-25T11:41:58;3.97;;;3.30;;
30147;SDS011;16960;49.404;8.248;2022-08-25T11:44:43;5.00;;;3.30;;
30147;SDS011;16960;49.404;8.248;2022-08-25T11:47:31;3.23;;;3.00;;
30147;SDS011;16960;49.404;8.248;2022-08-25T11:50:07;3.50;;;3.20;;
30147;SDS011;16960;49.404;8.248;2022-08-25T11:52:50;3.97;;;3.50;;
30147;SDS011;16960;49.404;8.248;2022-08-25T11:55:21;3.53;;;3.23;;
30147;SDS011;16960;49.404;8.248;2022-08-25T12:00:42;3.07;;;2.87;;
30147;SDS011;16960;49.404;8.248;2022-08-25T12:06:20;3.70;;;3.40;;
30147;SDS011;16960;49.404;8.248;2022-08-25T12:08:51;3.83;;;3.40;;
30147;SDS011;16960;49.404;8.248;2022-08-25T12:11:43;3.57;;;3.27;;
30147;SDS011;16960;49.404;8.248;2022-08-25T12:14:19;3.53;;;3.23;;
30147;SDS011;16960;49.404;8.248;2022-08-25T12:17:19;5.67;;;4.33;;
30147;SDS011;16960;49.404;8.248;2022-08-25T12:19:54;3.37;;;3.00;;
30147;SDS011;16960;49.404;8.248;2022-08-25T12:22:40;3.13;;;2.93;;
30147;SDS011;16960;49.404;8.248;2022-08-25T12:25:19;2.93;;;2.73;;
30147;SDS011;16960;49.404;8.248;2022-08-25T12:28:28;3.40;;;2.90;;
30147;SDS011;16960;49.404;8.248;2022-08-25T12:31:10;4.13;;;3.60;;
30147;SDS011;16960;49.404;8.248;2022-08-25T12:33:51;3.23;;;2.93;;
30147;SDS011;16960;49.404;8.248;2022-08-25T12:36:30;2.93;;;2.73;;
30147;SDS011;16960;49.404;8.248;2022-08-25T12:39:08;6.17;;;3.43;;
30147;SDS011;16960;49.404;8.248;2022-08-25T12:41:53;3.33;;;3.03;;
30147;SDS011;16960;49.404;8.248;2022-08-25T12:44:35;3.47;;;3.17;;
30147;SDS011;16960;49.404;8.248;2022-08-25T12:47:06;3.63;;;3.33;;
30147;SDS011;16960;49.404;8.248;2022-08-25T12:49:39;3.20;;;2.97;;
30147;SDS011;16960;49.404;8.248;2022-08-25T12:52:09;3.20;;;2.90;;
30147;SDS011;16960;49.404;8.248;2022-08-25T12:54:44;2.77;;;2.37;;
30147;SDS011;16960;49.404;8.248;2022-08-25T13:00:10;3.90;;;3.47;;
30147;SDS011;16960;49.404;8.248;2022-08-25T13:02:47;3.37;;;2.60;;
30147;SDS011;16960;49.404;8.248;2022-08-25T13:05:40;4.00;;;3.10;;
30147;SDS011;16960;49.404;8.248;2022-08-25T13:08:28;3.97;;;3.57;;
30147;SDS011;16960;49.404;8.248;2022-08-25T13:11:08;3.60;;;3.30;;
30147;SDS011;16960;49.404;8.248;2022-08-25T13:13:42;3.93;;;2.63;;
30147;SDS011;16960;49.404;8.248;2022-08-25T13:16:15;3.50;;;2.67;;
30147;SDS011;16960;49.404;8.248;2022-08-25T13:18:43;3.30;;;3.00;;
30147;SDS011;16960;49.404;8.248;2022-08-25T13:21:12;3.37;;;3.17;;
30147;SDS011;16960;49.404;8.248;2022-08-25T13:23:43;3.50;;;3.20;;
30147;SDS011;16960;49.404;8.248;2022-08-25T13:26:20;3.13;;;2.80;;
30147;SDS011;16960;49.404;8.248;2022-08-25T13:28:52;3.40;;;2.87;;
30147;SDS011;16960;49.404;8.248;2022-08-25T13:31:23;3.20;;;2.90;;
30147;SDS011;16960;49.404;8.248;2022-08-25T13:33:53;3.30;;;3.00;;
30147;SDS011;16960;49.404;8.248;2022-08-25T13:36:22;5.00;;;2.87;;
30147;SDS011;16960;49.404;8.248;2022-08-25T13:39:12;3.90;;;2.90;;
30147;SDS011;16960;49.404;8.248;2022-08-25T13:41:44;2.93;;;2.73;;
30147;SDS011;16960;49.404;8.248;2022-08-25T13:44:13;3.80;;;3.47;;
30147;SDS011;16960;49.404;8.248;2022-08-25T13:46:41;3.57;;;3.27;;
30147;SDS011;16960;49.404;8.248;2022-08-25T13:49:09;3.00;;;2.80;;
30147;SDS011;16960;49.404;8.248;2022-08-25T13:51:37;3.00;;;2.80;;
30147;SDS011;16960;49.404;8.248;2022-08-25T13:54:22;2.40;;;2.20;;
30147;SDS011;16960;49.404;8.248;2022-08-25T13:56:51;2.60;;;2.27;;
30147;SDS011;16960;49.404;8.248;2022-08-25T13:59:19;2.50;;;2.30;;
30147;SDS011;16960;49.404;8.248;2022-08-25T14:01:49;3.37;;;3.07;;
30147;SDS011;16960;49.404;8.248;2022-08-25T14:04:18;3.50;;;2.60;;
30147;SDS011;16960;49.404;8.248;2022-08-25T14:07:07;3.07;;;2.77;;
30147;SDS011;16960;49.404;8.248;2022-08-25T14:09:45;2.80;;;2.60;;
30147;SDS011;16960;49.404;8.248;2022-08-25T14:12:26;3.23;;;2.93;;
30147;SDS011;16960;49.404;8.248;2022-08-25T14:14:58;4.60;;;2.87;;
30147;SDS011;16960;49.404;8.248;2022-08-25T14:17:26;3.10;;;2.80;;
30147;SDS011;16960;49.404;8.248;2022-08-25T14:19:53;4.50;;;2.73;;
30147;SDS011;16960;49.404;8.248;2022-08-25T14:22:21;3.40;;;3.10;;
30147;SDS011;16960;49.404;8.248;2022-08-25T14:24:51;2.50;;;2.30;;
30147;SDS011;16960;49.404;8.248;2022-08-25T14:27:19;3.40;;;3.10;;
30147;SDS011;16960;49.404;8.248;2022-08-25T14:29:46;2.60;;;2.40;;
30147;SDS011;16960;49.404;8.248;2022-08-25T14:32:14;2.67;;;2.47;;
30147;SDS011;16960;49.404;8.248;2022-08-25T14:34:42;3.40;;;3.10;;
30147;SDS011;16960;49.404;8.248;2022-08-25T14:37:10;2.80;;;2.60;;
30147;SDS011;16960;49.404;8.248;2022-08-25T14:39:39;3.10;;;2.90;;
30147;SDS011;16960;49.404;8.248;2022-08-25T14:42:08;3.23;;;3.03;;
30147;SDS011;16960;49.404;8.248;2022-08-25T14:44:35;2.93;;;2.73;;
30147;SDS011;16960;49.404;8.248;2022-08-25T14:47:03;3.40;;;3.10;;
30147;SDS011;16960;49.404;8.248;2022-08-25T14:49:33;3.93;;;2.50;;
30147;SDS011;16960;49.404;8.248;2022-08-25T14:52:08;2.90;;;2.70;;
30147;SDS011;16960;49.404;8.248;2022-08-25T14:54:41;3.30;;;3.00;;
30147;SDS011;16960;49.404;8.248;2022-08-25T14:57:10;3.03;;;2.83;;
30147;SDS011;16960;49.404;8.248;2022-08-25T14:59:37;3.50;;;3.20;;
30147;SDS011;16960;49.404;8.248;2022-08-25T15:02:04;3.30;;;2.73;;
30147;SDS011;16960;49.404;8.248;2022-08-25T15:04:34;2.90;;;2.70;;
30147;SDS011;16960;49.404;8.248;2022-08-25T15:07:01;3.00;;;2.80;;
30147;SDS011;16960;49.404;8.248;2022-08-25T15:09:49;2.83;;;2.50;;
30147;SDS011;16960;49.404;8.248;2022-08-25T15:12:16;3.20;;;2.60;;
30147;SDS011;16960;49.404;8.248;2022-08-25T15:14:43;2.83;;;2.63;;
30147;SDS011;16960;49.404;8.248;2022-08-25T15:17:10;2.77;;;2.57;;
30147;SDS011;16960;49.404;8.248;2022-08-25T15:19:38;3.10;;;2.90;;
30147;SDS011;16960;49.404;8.248;2022-08-25T15:22:05;2.60;;;2.40;;
30147;SDS011;16960;49.404;8.248;2022-08-25T15:24:32;3.20;;;2.60;;
30147;SDS011;16960;49.404;8.248;2022-08-25T15:27:00;2.83;;;2.63;;
30147;SDS011;16960;49.404;8.248;2022-08-25T15:29:31;2.90;;;2.70;;
30147;SDS011;16960;49.404;8.248;2022-08-25T15:32:00;2.50;;;2.30;;